sensor_id;sensor_type;location;lat;lon;timestamp;P1;durP1;ratioP1;P2;durP2;ratioP2
36931;SDS011;22847;42.654;23.370;2024-02-28T00:01:38;35.75;;;16.58;;
36931;SDS011;22847;42.654;23.370;2024-02-28T00:04:13;31.50;;;16.45;;
36931;SDS011;22847;42.654;23.370;2024-02-28T00:06:38;29.63;;;15.68;;
36931;SDS011;22847;42.654;23.370;2024-02-28T00:09:04;32.35;;;15.80;;
36931;SDS011;22847;42.654;23.370;2024-02-28T00:11:30;35.47;;;16.95;;
36931;SDS011;22847;42.654;23.370;2024-02-28T00:13:55;33.45;;;17.42;;
36931;SDS011;22847;42.654;23.370;2024-02-28T00:16:21;33.13;;;17.33;;
36931;SDS011;22847;42.654;23.370;2024-02-28T00:18:46;35.30;;;16.95;;
36931;SDS011;22847;42.654;23.370;2024-02-28T00:21:12;35.83;;;16.27;;
36931;SDS011;22847;42.654;23.370;2024-02-28T00:23:37;31.10;;;16.42;;
36931;SDS011;22847;42.654;23.370;2024-02-28T00:26:03;32.95;;;16.45;;
36931;SDS011;22847;42.654;23.370;2024-02-28T00:28:28;31.88;;;16.48;;
36931;SDS011;22847;42.654;23.370;2024-02-28T00:30:53;33.85;;;16.60;;
36931;SDS011;22847;42.654;23.370;2024-02-28T00:33:19;34.53;;;17.73;;
36931;SDS011;22847;42.654;23.370;2024-02-28T00:35:44;31.27;;;17.42;;
36931;SDS011;22847;42.654;23.370;2024-02-28T00:38:10;31.90;;;17.60;;
36931;SDS011;22847;42.654;23.370;2024-02-28T00:40:36;36.13;;;17.48;;
36931;SDS011;22847;42.654;23.370;2024-02-28T00:43:01;30.08;;;17.27;;
36931;SDS011;22847;42.654;23.370;2024-02-28T00:45:27;35.90;;;16.65;;
36931;SDS011;22847;42.654;23.370;2024-02-28T00:47:52;42.13;;;16.88;;
36931;SDS011;22847;42.654;23.370;2024-02-28T00:50:19;32.42;;;16.67;;
36931;SDS011;22847;42.654;23.370;2024-02-28T00:52:45;35.97;;;18.50;;
36931;SDS011;22847;42.654;23.370;2024-02-28T00:55:10;33.92;;;17.38;;
36931;SDS011;22847;42.654;23.370;2024-02-28T00:57:36;34.40;;;17.35;;
36931;SDS011;22847;42.654;23.370;2024-02-28T01:00:02;34.08;;;17.83;;
36931;SDS011;22847;42.654;23.370;2024-02-28T01:02:27;36.22;;;17.90;;
36931;SDS011;22847;42.654;23.370;2024-02-28T01:04:53;37.13;;;19.35;;
36931;SDS011;22847;42.654;23.370;2024-02-28T01:07:18;30.25;;;18.33;;
36931;SDS011;22847;42.654;23.370;2024-02-28T01:09:44;33.00;;;18.02;;
36931;SDS011;22847;42.654;23.370;2024-02-28T01:12:09;36.67;;;18.02;;
36931;SDS011;22847;42.654;23.370;2024-02-28T01:14:35;35.50;;;18.70;;
36931;SDS011;22847;42.654;23.370;2024-02-28T01:17:00;33.78;;;18.05;;
36931;SDS011;22847;42.654;23.370;2024-02-28T01:19:26;33.78;;;18.83;;
36931;SDS011;22847;42.654;23.370;2024-02-28T01:21:51;42.63;;;19.73;;
36931;SDS011;22847;42.654;23.370;2024-02-28T01:24:17;41.72;;;18.67;;
36931;SDS011;22847;42.654;23.370;2024-02-28T01:26:42;36.35;;;18.70;;
36931;SDS011;22847;42.654;23.370;2024-02-28T01:29:08;35.67;;;19.65;;
36931;SDS011;22847;42.654;23.370;2024-02-28T01:31:33;37.50;;;18.95;;
36931;SDS011;22847;42.654;23.370;2024-02-28T01:33:59;32.70;;;18.83;;
36931;SDS011;22847;42.654;23.370;2024-02-28T01:36:24;35.85;;;19.08;;
36931;SDS011;22847;42.654;23.370;2024-02-28T01:38:51;43.83;;;20.52;;
36931;SDS011;22847;42.654;23.370;2024-02-28T01:41:16;41.22;;;20.13;;
36931;SDS011;22847;42.654;23.370;2024-02-28T01:43:42;39.63;;;20.17;;
36931;SDS011;22847;42.654;23.370;2024-02-28T01:46:41;40.78;;;19.17;;
36931;SDS011;22847;42.654;23.370;2024-02-28T01:49:00;33.28;;;18.23;;
36931;SDS011;22847;42.654;23.370;2024-02-28T01:51:26;40.92;;;18.30;;
36931;SDS011;22847;42.654;23.370;2024-02-28T01:53:52;37.53;;;16.95;;
36931;SDS011;22847;42.654;23.370;2024-02-28T01:56:20;31.23;;;17.27;;
36931;SDS011;22847;42.654;23.370;2024-02-28T01:58:47;40.03;;;19.08;;
36931;SDS011;22847;42.654;23.370;2024-02-28T02:01:14;37.30;;;17.60;;
36931;SDS011;22847;42.654;23.370;2024-02-28T02:03:40;28.75;;;16.65;;
36931;SDS011;22847;42.654;23.370;2024-02-28T02:06:07;35.70;;;19.10;;
36931;SDS011;22847;42.654;23.370;2024-02-28T02:08:33;34.33;;;18.40;;
36931;SDS011;22847;42.654;23.370;2024-02-28T02:10:59;34.45;;;18.42;;
36931;SDS011;22847;42.654;23.370;2024-02-28T02:13:25;36.58;;;18.45;;
36931;SDS011;22847;42.654;23.370;2024-02-28T02:15:51;36.08;;;18.88;;
36931;SDS011;22847;42.654;23.370;2024-02-28T02:18:16;35.10;;;19.02;;
36931;SDS011;22847;42.654;23.370;2024-02-28T02:20:43;38.95;;;18.77;;
36931;SDS011;22847;42.654;23.370;2024-02-28T02:23:11;40.90;;;20.15;;
36931;SDS011;22847;42.654;23.370;2024-02-28T02:25:45;33.08;;;18.80;;
36931;SDS011;22847;42.654;23.370;2024-02-28T02:28:11;34.35;;;19.15;;
36931;SDS011;22847;42.654;23.370;2024-02-28T02:30:38;39.45;;;18.25;;
36931;SDS011;22847;42.654;23.370;2024-02-28T02:33:04;37.25;;;16.80;;
36931;SDS011;22847;42.654;23.370;2024-02-28T02:35:30;42.67;;;19.70;;
36931;SDS011;22847;42.654;23.370;2024-02-28T02:37:56;35.35;;;18.88;;
36931;SDS011;22847;42.654;23.370;2024-02-28T02:40:22;37.97;;;19.58;;
36931;SDS011;22847;42.654;23.370;2024-02-28T02:42:48;44.92;;;19.15;;
36931;SDS011;22847;42.654;23.370;2024-02-28T02:45:13;41.03;;;20.15;;
36931;SDS011;22847;42.654;23.370;2024-02-28T02:47:39;39.88;;;19.42;;
36931;SDS011;22847;42.654;23.370;2024-02-28T02:50:05;38.65;;;20.15;;
36931;SDS011;22847;42.654;23.370;2024-02-28T02:52:31;38.17;;;20.52;;
36931;SDS011;22847;42.654;23.370;2024-02-28T02:54:57;40.67;;;19.25;;
36931;SDS011;22847;42.654;23.370;2024-02-28T02:57:22;35.75;;;18.27;;
36931;SDS011;22847;42.654;23.370;2024-02-28T02:59:48;38.35;;;19.52;;
36931;SDS011;22847;42.654;23.370;2024-02-28T03:02:13;48.95;;;22.40;;
36931;SDS011;22847;42.654;23.370;2024-02-28T03:04:39;40.00;;;20.92;;
36931;SDS011;22847;42.654;23.370;2024-02-28T03:07:05;39.25;;;20.50;;
36931;SDS011;22847;42.654;23.370;2024-02-28T03:09:30;43.08;;;19.10;;
36931;SDS011;22847;42.654;23.370;2024-02-28T03:11:56;37.63;;;19.13;;
36931;SDS011;22847;42.654;23.370;2024-02-28T03:14:21;54.22;;;27.90;;
36931;SDS011;22847;42.654;23.370;2024-02-28T03:16:52;37.90;;;19.27;;
36931;SDS011;22847;42.654;23.370;2024-02-28T03:19:18;35.90;;;19.63;;
36931;SDS011;22847;42.654;23.370;2024-02-28T03:21:44;38.15;;;18.42;;
36931;SDS011;22847;42.654;23.370;2024-02-28T03:24:10;38.00;;;18.92;;
36931;SDS011;22847;42.654;23.370;2024-02-28T03:26:35;37.97;;;19.27;;
36931;SDS011;22847;42.654;23.370;2024-02-28T03:29:01;41.72;;;19.23;;
36931;SDS011;22847;42.654;23.370;2024-02-28T03:31:27;40.58;;;20.48;;
36931;SDS011;22847;42.654;23.370;2024-02-28T03:33:52;33.08;;;19.05;;
36931;SDS011;22847;42.654;23.370;2024-02-28T03:36:18;40.92;;;19.40;;
36931;SDS011;22847;42.654;23.370;2024-02-28T03:38:44;43.45;;;20.20;;
36931;SDS011;22847;42.654;23.370;2024-02-28T03:41:09;38.47;;;20.88;;
36931;SDS011;22847;42.654;23.370;2024-02-28T03:43:35;37.10;;;20.15;;
36931;SDS011;22847;42.654;23.370;2024-02-28T03:46:00;36.10;;;17.67;;
36931;SDS011;22847;42.654;23.370;2024-02-28T03:48:26;33.35;;;19.10;;
36931;SDS011;22847;42.654;23.370;2024-02-28T03:50:52;34.63;;;18.85;;
36931;SDS011;22847;42.654;23.370;2024-02-28T03:53:18;39.45;;;20.02;;
36931;SDS011;22847;42.654;23.370;2024-02-28T03:55:43;41.92;;;19.73;;
36931;SDS011;22847;42.654;23.370;2024-02-28T03:58:09;38.95;;;18.85;;
36931;SDS011;22847;42.654;23.370;2024-02-28T04:00:35;37.55;;;19.63;;
36931;SDS011;22847;42.654;23.370;2024-02-28T04:03:01;35.70;;;19.58;;
36931;SDS011;22847;42.654;23.370;2024-02-28T04:05:28;39.80;;;20.15;;
36931;SDS011;22847;42.654;23.370;2024-02-28T04:07:54;31.25;;;18.92;;
36931;SDS011;22847;42.654;23.370;2024-02-28T04:10:20;46.00;;;19.50;;
36931;SDS011;22847;42.654;23.370;2024-02-28T04:12:46;44.03;;;21.02;;
36931;SDS011;22847;42.654;23.370;2024-02-28T04:15:12;60.92;;;26.05;;
36931;SDS011;22847;42.654;23.370;2024-02-28T04:17:38;46.97;;;24.73;;
36931;SDS011;22847;42.654;23.370;2024-02-28T04:20:13;35.28;;;19.17;;
36931;SDS011;22847;42.654;23.370;2024-02-28T04:22:40;38.90;;;19.30;;
36931;SDS011;22847;42.654;23.370;2024-02-28T04:25:06;34.95;;;19.80;;
36931;SDS011;22847;42.654;23.370;2024-02-28T04:27:33;39.92;;;20.33;;
36931;SDS011;22847;42.654;23.370;2024-02-28T04:30:00;39.97;;;19.75;;
36931;SDS011;22847;42.654;23.370;2024-02-28T04:32:25;38.63;;;20.02;;
36931;SDS011;22847;42.654;23.370;2024-02-28T04:34:51;41.35;;;21.48;;
36931;SDS011;22847;42.654;23.370;2024-02-28T04:37:16;38.60;;;19.75;;
36931;SDS011;22847;42.654;23.370;2024-02-28T04:39:42;36.63;;;20.63;;
36931;SDS011;22847;42.654;23.370;2024-02-28T04:42:08;42.97;;;20.15;;
36931;SDS011;22847;42.654;23.370;2024-02-28T04:44:33;38.50;;;20.92;;
36931;SDS011;22847;42.654;23.370;2024-02-28T04:46:59;43.70;;;21.10;;
36931;SDS011;22847;42.654;23.370;2024-02-28T04:49:24;41.72;;;20.27;;
36931;SDS011;22847;42.654;23.370;2024-02-28T04:51:50;42.22;;;21.42;;
36931;SDS011;22847;42.654;23.370;2024-02-28T04:54:15;43.15;;;21.05;;
36931;SDS011;22847;42.654;23.370;2024-02-28T04:56:41;40.03;;;19.60;;
36931;SDS011;22847;42.654;23.370;2024-02-28T04:59:16;40.92;;;20.75;;
36931;SDS011;22847;42.654;23.370;2024-02-28T05:01:41;42.90;;;19.95;;
36931;SDS011;22847;42.654;23.370;2024-02-28T05:04:10;40.47;;;21.33;;
36931;SDS011;22847;42.654;23.370;2024-02-28T05:06:36;37.97;;;20.02;;
36931;SDS011;22847;42.654;23.370;2024-02-28T05:09:02;40.40;;;20.55;;
36931;SDS011;22847;42.654;23.370;2024-02-28T05:11:27;43.13;;;19.58;;
36931;SDS011;22847;42.654;23.370;2024-02-28T05:13:53;41.90;;;19.23;;
36931;SDS011;22847;42.654;23.370;2024-02-28T05:16:18;36.40;;;19.73;;
36931;SDS011;22847;42.654;23.370;2024-02-28T05:18:44;38.65;;;20.02;;
36931;SDS011;22847;42.654;23.370;2024-02-28T05:21:10;42.35;;;19.52;;
36931;SDS011;22847;42.654;23.370;2024-02-28T05:23:36;40.83;;;19.58;;
36931;SDS011;22847;42.654;23.370;2024-02-28T05:26:02;39.60;;;21.45;;
36931;SDS011;22847;42.654;23.370;2024-02-28T05:28:29;39.90;;;20.20;;
36931;SDS011;22847;42.654;23.370;2024-02-28T05:30:55;43.75;;;22.48;;
36931;SDS011;22847;42.654;23.370;2024-02-28T05:33:21;38.45;;;18.50;;
36931;SDS011;22847;42.654;23.370;2024-02-28T05:35:46;34.70;;;19.25;;
36931;SDS011;22847;42.654;23.370;2024-02-28T05:38:12;37.95;;;18.48;;
36931;SDS011;22847;42.654;23.370;2024-02-28T05:40:38;37.28;;;20.02;;
36931;SDS011;22847;42.654;23.370;2024-02-28T05:43:03;39.60;;;19.98;;
36931;SDS011;22847;42.654;23.370;2024-02-28T05:45:29;43.97;;;18.27;;
36931;SDS011;22847;42.654;23.370;2024-02-28T05:47:55;35.38;;;18.73;;
36931;SDS011;22847;42.654;23.370;2024-02-28T05:50:20;39.58;;;17.15;;
36931;SDS011;22847;42.654;23.370;2024-02-28T05:52:46;32.13;;;15.32;;
36931;SDS011;22847;42.654;23.370;2024-02-28T05:55:12;35.50;;;15.88;;
36931;SDS011;22847;42.654;23.370;2024-02-28T05:57:37;72.55;;;25.17;;
36931;SDS011;22847;42.654;23.370;2024-02-28T06:00:03;36.08;;;16.02;;
36931;SDS011;22847;42.654;23.370;2024-02-28T06:02:35;37.67;;;15.57;;
36931;SDS011;22847;42.654;23.370;2024-02-28T06:05:02;34.55;;;15.65;;
36931;SDS011;22847;42.654;23.370;2024-02-28T06:07:27;34.35;;;15.25;;
36931;SDS011;22847;42.654;23.370;2024-02-28T06:09:53;42.03;;;14.93;;
36931;SDS011;22847;42.654;23.370;2024-02-28T06:12:18;38.90;;;14.70;;
36931;SDS011;22847;42.654;23.370;2024-02-28T06:14:44;32.53;;;14.38;;
36931;SDS011;22847;42.654;23.370;2024-02-28T06:17:09;24.33;;;14.05;;
36931;SDS011;22847;42.654;23.370;2024-02-28T06:19:35;33.90;;;14.25;;
36931;SDS011;22847;42.654;23.370;2024-02-28T06:22:00;38.38;;;15.48;;
36931;SDS011;22847;42.654;23.370;2024-02-28T06:24:26;31.77;;;15.15;;
36931;SDS011;22847;42.654;23.370;2024-02-28T06:26:51;26.80;;;15.30;;
36931;SDS011;22847;42.654;23.370;2024-02-28T06:29:17;29.48;;;15.20;;
36931;SDS011;22847;42.654;23.370;2024-02-28T06:31:42;38.40;;;17.58;;
36931;SDS011;22847;42.654;23.370;2024-02-28T06:34:08;32.53;;;15.45;;
36931;SDS011;22847;42.654;23.370;2024-02-28T06:36:33;29.60;;;15.93;;
36931;SDS011;22847;42.654;23.370;2024-02-28T06:38:59;31.58;;;15.65;;
36931;SDS011;22847;42.654;23.370;2024-02-28T06:41:24;29.10;;;16.20;;
36931;SDS011;22847;42.654;23.370;2024-02-28T06:43:51;25.17;;;15.23;;
36931;SDS011;22847;42.654;23.370;2024-02-28T06:46:17;31.95;;;16.52;;
36931;SDS011;22847;42.654;23.370;2024-02-28T06:48:43;29.73;;;18.00;;
36931;SDS011;22847;42.654;23.370;2024-02-28T06:51:08;36.33;;;16.90;;
36931;SDS011;22847;42.654;23.370;2024-02-28T06:53:33;34.38;;;16.27;;
36931;SDS011;22847;42.654;23.370;2024-02-28T06:56:02;33.28;;;16.95;;
36931;SDS011;22847;42.654;23.370;2024-02-28T06:58:28;29.88;;;17.30;;
36931;SDS011;22847;42.654;23.370;2024-02-28T07:00:54;31.75;;;17.08;;
36931;SDS011;22847;42.654;23.370;2024-02-28T07:03:19;36.10;;;17.63;;
36931;SDS011;22847;42.654;23.370;2024-02-28T07:05:45;32.80;;;17.83;;
36931;SDS011;22847;42.654;23.370;2024-02-28T07:08:11;36.38;;;18.95;;
36931;SDS011;22847;42.654;23.370;2024-02-28T07:10:36;29.83;;;19.00;;
36931;SDS011;22847;42.654;23.370;2024-02-28T07:13:02;33.03;;;17.73;;
36931;SDS011;22847;42.654;23.370;2024-02-28T07:15:28;31.48;;;19.05;;
36931;SDS011;22847;42.654;23.370;2024-02-28T07:17:53;39.22;;;19.92;;
36931;SDS011;22847;42.654;23.370;2024-02-28T07:20:19;32.88;;;19.05;;
36931;SDS011;22847;42.654;23.370;2024-02-28T07:22:44;37.65;;;19.90;;
36931;SDS011;22847;42.654;23.370;2024-02-28T07:25:09;31.83;;;18.05;;
36931;SDS011;22847;42.654;23.370;2024-02-28T07:27:35;35.25;;;20.27;;
36931;SDS011;22847;42.654;23.370;2024-02-28T07:30:01;32.10;;;19.75;;
36931;SDS011;22847;42.654;23.370;2024-02-28T07:32:28;30.63;;;17.85;;
36931;SDS011;22847;42.654;23.370;2024-02-28T07:34:59;30.70;;;18.38;;
36931;SDS011;22847;42.654;23.370;2024-02-28T07:37:25;33.35;;;19.25;;
36931;SDS011;22847;42.654;23.370;2024-02-28T07:39:51;38.00;;;19.67;;
36931;SDS011;22847;42.654;23.370;2024-02-28T07:42:16;38.33;;;19.42;;
36931;SDS011;22847;42.654;23.370;2024-02-28T07:44:42;34.20;;;19.35;;
36931;SDS011;22847;42.654;23.370;2024-02-28T07:47:08;35.25;;;19.35;;
36931;SDS011;22847;42.654;23.370;2024-02-28T07:49:34;33.80;;;18.92;;
36931;SDS011;22847;42.654;23.370;2024-02-28T07:51:59;40.35;;;19.83;;
36931;SDS011;22847;42.654;23.370;2024-02-28T07:54:24;32.17;;;18.52;;
36931;SDS011;22847;42.654;23.370;2024-02-28T07:56:50;42.03;;;21.80;;
36931;SDS011;22847;42.654;23.370;2024-02-28T07:59:15;44.83;;;21.73;;
36931;SDS011;22847;42.654;23.370;2024-02-28T08:01:41;37.33;;;21.88;;
36931;SDS011;22847;42.654;23.370;2024-02-28T08:04:07;36.60;;;19.98;;
36931;SDS011;22847;42.654;23.370;2024-02-28T08:06:32;37.05;;;18.45;;
36931;SDS011;22847;42.654;23.370;2024-02-28T08:08:58;40.67;;;20.48;;
36931;SDS011;22847;42.654;23.370;2024-02-28T08:11:24;36.58;;;19.10;;
36931;SDS011;22847;42.654;23.370;2024-02-28T08:13:50;34.13;;;19.02;;
36931;SDS011;22847;42.654;23.370;2024-02-28T08:16:16;29.30;;;17.92;;
36931;SDS011;22847;42.654;23.370;2024-02-28T08:18:41;37.35;;;20.55;;
36931;SDS011;22847;42.654;23.370;2024-02-28T08:21:07;28.83;;;17.95;;
36931;SDS011;22847;42.654;23.370;2024-02-28T08:23:33;35.00;;;17.92;;
36931;SDS011;22847;42.654;23.370;2024-02-28T08:25:59;33.70;;;18.45;;
36931;SDS011;22847;42.654;23.370;2024-02-28T08:28:24;33.78;;;19.13;;
36931;SDS011;22847;42.654;23.370;2024-02-28T08:30:50;40.22;;;18.83;;
36931;SDS011;22847;42.654;23.370;2024-02-28T08:33:16;31.40;;;17.80;;
36931;SDS011;22847;42.654;23.370;2024-02-28T08:35:42;31.65;;;18.67;;
36931;SDS011;22847;42.654;23.370;2024-02-28T08:38:08;27.75;;;16.50;;
36931;SDS011;22847;42.654;23.370;2024-02-28T08:40:33;31.58;;;17.27;;
36931;SDS011;22847;42.654;23.370;2024-02-28T08:42:59;30.92;;;16.35;;
36931;SDS011;22847;42.654;23.370;2024-02-28T08:45:24;34.05;;;19.67;;
36931;SDS011;22847;42.654;23.370;2024-02-28T08:47:50;34.65;;;17.38;;
36931;SDS011;22847;42.654;23.370;2024-02-28T08:50:15;28.35;;;16.73;;
36931;SDS011;22847;42.654;23.370;2024-02-28T08:52:41;33.95;;;18.10;;
36931;SDS011;22847;42.654;23.370;2024-02-28T08:55:07;32.42;;;16.90;;
36931;SDS011;22847;42.654;23.370;2024-02-28T08:57:32;42.72;;;20.67;;
36931;SDS011;22847;42.654;23.370;2024-02-28T08:59:59;35.70;;;19.98;;
36931;SDS011;22847;42.654;23.370;2024-02-28T09:02:24;36.30;;;21.08;;
36931;SDS011;22847;42.654;23.370;2024-02-28T09:04:50;40.40;;;20.52;;
36931;SDS011;22847;42.654;23.370;2024-02-28T09:07:18;39.72;;;21.75;;
36931;SDS011;22847;42.654;23.370;2024-02-28T09:09:46;47.67;;;22.17;;
36931;SDS011;22847;42.654;23.370;2024-02-28T09:12:13;39.75;;;22.75;;
36931;SDS011;22847;42.654;23.370;2024-02-28T09:14:38;41.83;;;21.88;;
36931;SDS011;22847;42.654;23.370;2024-02-28T09:17:04;42.78;;;22.38;;
36931;SDS011;22847;42.654;23.370;2024-02-28T09:19:30;45.83;;;21.95;;
36931;SDS011;22847;42.654;23.370;2024-02-28T09:21:56;40.13;;;21.52;;
36931;SDS011;22847;42.654;23.370;2024-02-28T09:24:23;44.33;;;22.42;;
36931;SDS011;22847;42.654;23.370;2024-02-28T09:26:48;37.83;;;22.48;;
36931;SDS011;22847;42.654;23.370;2024-02-28T09:29:14;43.55;;;23.95;;
36931;SDS011;22847;42.654;23.370;2024-02-28T09:31:39;46.75;;;21.70;;
36931;SDS011;22847;42.654;23.370;2024-02-28T09:34:05;39.88;;;22.65;;
36931;SDS011;22847;42.654;23.370;2024-02-28T09:36:40;44.38;;;22.40;;
36931;SDS011;22847;42.654;23.370;2024-02-28T09:39:06;36.63;;;21.98;;
36931;SDS011;22847;42.654;23.370;2024-02-28T09:41:32;39.53;;;20.50;;
36931;SDS011;22847;42.654;23.370;2024-02-28T09:43:57;39.90;;;21.52;;
36931;SDS011;22847;42.654;23.370;2024-02-28T09:46:25;43.47;;;20.48;;
36931;SDS011;22847;42.654;23.370;2024-02-28T09:48:50;46.33;;;21.42;;
36931;SDS011;22847;42.654;23.370;2024-02-28T09:51:21;35.90;;;19.75;;
36931;SDS011;22847;42.654;23.370;2024-02-28T09:53:47;40.85;;;18.90;;
36931;SDS011;22847;42.654;23.370;2024-02-28T09:56:12;34.70;;;20.35;;
36931;SDS011;22847;42.654;23.370;2024-02-28T09:58:39;40.08;;;20.55;;
36931;SDS011;22847;42.654;23.370;2024-02-28T10:01:07;36.50;;;19.58;;
36931;SDS011;22847;42.654;23.370;2024-02-28T10:03:34;40.97;;;18.60;;
36931;SDS011;22847;42.654;23.370;2024-02-28T10:06:01;33.70;;;17.58;;
36931;SDS011;22847;42.654;23.370;2024-02-28T10:08:27;33.80;;;16.67;;
36931;SDS011;22847;42.654;23.370;2024-02-28T10:10:54;33.35;;;16.45;;
36931;SDS011;22847;42.654;23.370;2024-02-28T10:13:21;27.40;;;16.05;;
36931;SDS011;22847;42.654;23.370;2024-02-28T10:15:47;26.02;;;15.35;;
36931;SDS011;22847;42.654;23.370;2024-02-28T10:18:14;34.35;;;16.00;;
36931;SDS011;22847;42.654;23.370;2024-02-28T10:20:40;30.63;;;15.13;;
36931;SDS011;22847;42.654;23.370;2024-02-28T10:23:05;29.35;;;14.02;;
36931;SDS011;22847;42.654;23.370;2024-02-28T10:25:33;30.38;;;13.70;;
36931;SDS011;22847;42.654;23.370;2024-02-28T10:28:02;25.05;;;13.27;;
36931;SDS011;22847;42.654;23.370;2024-02-28T10:30:27;35.60;;;13.90;;
36931;SDS011;22847;42.654;23.370;2024-02-28T10:32:53;24.05;;;13.50;;
36931;SDS011;22847;42.654;23.370;2024-02-28T10:35:19;27.63;;;12.88;;
36931;SDS011;22847;42.654;23.370;2024-02-28T10:37:46;24.65;;;13.52;;
36931;SDS011;22847;42.654;23.370;2024-02-28T10:40:15;22.88;;;13.20;;
36931;SDS011;22847;42.654;23.370;2024-02-28T10:42:42;22.35;;;12.30;;
36931;SDS011;22847;42.654;23.370;2024-02-28T10:45:12;21.33;;;11.25;;
36931;SDS011;22847;42.654;23.370;2024-02-28T10:47:40;20.60;;;10.48;;
36931;SDS011;22847;42.654;23.370;2024-02-28T10:50:06;20.15;;;10.70;;
36931;SDS011;22847;42.654;23.370;2024-02-28T10:52:33;28.67;;;11.18;;
36931;SDS011;22847;42.654;23.370;2024-02-28T10:54:59;18.45;;;11.57;;
36931;SDS011;22847;42.654;23.370;2024-02-28T10:57:27;26.45;;;10.40;;
36931;SDS011;22847;42.654;23.370;2024-02-28T10:59:55;21.38;;;11.25;;
36931;SDS011;22847;42.654;23.370;2024-02-28T11:02:22;24.20;;;12.32;;
36931;SDS011;22847;42.654;23.370;2024-02-28T11:04:53;19.48;;;11.10;;
36931;SDS011;22847;42.654;23.370;2024-02-28T11:07:19;19.52;;;11.88;;
36931;SDS011;22847;42.654;23.370;2024-02-28T11:09:46;20.42;;;10.68;;
36931;SDS011;22847;42.654;23.370;2024-02-28T11:12:27;27.77;;;11.27;;
36931;SDS011;22847;42.654;23.370;2024-02-28T11:15:00;20.55;;;11.45;;
36931;SDS011;22847;42.654;23.370;2024-02-28T11:17:29;24.98;;;9.95;;
36931;SDS011;22847;42.654;23.370;2024-02-28T11:19:56;26.67;;;11.40;;
36931;SDS011;22847;42.654;23.370;2024-02-28T11:22:22;26.33;;;10.20;;
36931;SDS011;22847;42.654;23.370;2024-02-28T11:24:47;17.08;;;9.82;;
36931;SDS011;22847;42.654;23.370;2024-02-28T11:27:15;19.90;;;10.55;;
36931;SDS011;22847;42.654;23.370;2024-02-28T11:29:41;21.58;;;11.30;;
36931;SDS011;22847;42.654;23.370;2024-02-28T11:32:07;19.77;;;9.60;;
36931;SDS011;22847;42.654;23.370;2024-02-28T11:34:33;17.95;;;9.68;;
36931;SDS011;22847;42.654;23.370;2024-02-28T11:36:59;19.35;;;9.98;;
36931;SDS011;22847;42.654;23.370;2024-02-28T11:39:25;18.00;;;9.20;;
36931;SDS011;22847;42.654;23.370;2024-02-28T11:41:51;16.67;;;10.00;;
36931;SDS011;22847;42.654;23.370;2024-02-28T11:44:17;16.88;;;8.50;;
36931;SDS011;22847;42.654;23.370;2024-02-28T11:46:49;20.95;;;8.73;;
36931;SDS011;22847;42.654;23.370;2024-02-28T11:49:15;18.73;;;9.20;;
36931;SDS011;22847;42.654;23.370;2024-02-28T11:51:42;18.88;;;9.73;;
36931;SDS011;22847;42.654;23.370;2024-02-28T11:54:08;16.65;;;8.20;;
36931;SDS011;22847;42.654;23.370;2024-02-28T11:56:37;14.68;;;7.88;;
36931;SDS011;22847;42.654;23.370;2024-02-28T11:59:03;18.48;;;7.30;;
36931;SDS011;22847;42.654;23.370;2024-02-28T12:04:11;12.88;;;7.63;;
36931;SDS011;22847;42.654;23.370;2024-02-28T12:06:38;14.02;;;7.82;;
36931;SDS011;22847;42.654;23.370;2024-02-28T12:09:04;16.42;;;8.70;;
36931;SDS011;22847;42.654;23.370;2024-02-28T12:11:36;16.00;;;9.85;;
36931;SDS011;22847;42.654;23.370;2024-02-28T12:14:08;19.02;;;9.70;;
36931;SDS011;22847;42.654;23.370;2024-02-28T12:16:36;21.45;;;10.07;;
36931;SDS011;22847;42.654;23.370;2024-02-28T12:19:09;23.63;;;10.68;;
36931;SDS011;22847;42.654;23.370;2024-02-28T12:21:36;16.13;;;9.52;;
36931;SDS011;22847;42.654;23.370;2024-02-28T12:24:02;21.90;;;9.93;;
36931;SDS011;22847;42.654;23.370;2024-02-28T12:26:29;18.00;;;9.43;;
36931;SDS011;22847;42.654;23.370;2024-02-28T12:28:55;17.45;;;10.25;;
36931;SDS011;22847;42.654;23.370;2024-02-28T12:31:20;20.27;;;10.48;;
36931;SDS011;22847;42.654;23.370;2024-02-28T12:33:47;22.48;;;10.40;;
36931;SDS011;22847;42.654;23.370;2024-02-28T12:36:12;17.73;;;9.65;;
36931;SDS011;22847;42.654;23.370;2024-02-28T12:38:39;18.15;;;9.93;;
36931;SDS011;22847;42.654;23.370;2024-02-28T12:41:06;16.77;;;9.52;;
36931;SDS011;22847;42.654;23.370;2024-02-28T12:43:31;19.08;;;11.43;;
36931;SDS011;22847;42.654;23.370;2024-02-28T12:45:58;19.67;;;9.88;;
36931;SDS011;22847;42.654;23.370;2024-02-28T12:48:24;24.45;;;10.00;;
36931;SDS011;22847;42.654;23.370;2024-02-28T12:50:49;17.45;;;9.18;;
36931;SDS011;22847;42.654;23.370;2024-02-28T12:53:15;27.20;;;9.45;;
36931;SDS011;22847;42.654;23.370;2024-02-28T12:55:41;17.38;;;9.38;;
36931;SDS011;22847;42.654;23.370;2024-02-28T12:58:07;18.50;;;9.63;;
36931;SDS011;22847;42.654;23.370;2024-02-28T13:00:33;22.13;;;9.10;;
36931;SDS011;22847;42.654;23.370;2024-02-28T13:02:58;17.40;;;8.00;;
36931;SDS011;22847;42.654;23.370;2024-02-28T13:05:24;15.05;;;8.30;;
36931;SDS011;22847;42.654;23.370;2024-02-28T13:07:50;30.77;;;10.40;;
36931;SDS011;22847;42.654;23.370;2024-02-28T13:10:16;16.50;;;9.00;;
36931;SDS011;22847;42.654;23.370;2024-02-28T13:12:41;18.90;;;10.40;;
36931;SDS011;22847;42.654;23.370;2024-02-28T13:15:07;15.98;;;8.48;;
36931;SDS011;22847;42.654;23.370;2024-02-28T13:17:33;18.67;;;8.55;;
36931;SDS011;22847;42.654;23.370;2024-02-28T13:19:58;15.23;;;7.22;;
36931;SDS011;22847;42.654;23.370;2024-02-28T13:22:24;14.82;;;8.10;;
36931;SDS011;22847;42.654;23.370;2024-02-28T13:24:49;17.65;;;9.52;;
36931;SDS011;22847;42.654;23.370;2024-02-28T13:27:15;20.80;;;10.27;;
36931;SDS011;22847;42.654;23.370;2024-02-28T13:29:40;16.67;;;9.77;;
36931;SDS011;22847;42.654;23.370;2024-02-28T13:32:06;13.32;;;7.78;;
36931;SDS011;22847;42.654;23.370;2024-02-28T13:34:32;53.75;;;33.58;;
36931;SDS011;22847;42.654;23.370;2024-02-28T13:36:58;103.68;;;53.55;;
36931;SDS011;22847;42.654;23.370;2024-02-28T13:39:23;123.93;;;69.22;;
36931;SDS011;22847;42.654;23.370;2024-02-28T13:41:49;51.90;;;26.55;;
36931;SDS011;22847;42.654;23.370;2024-02-28T13:44:17;21.00;;;10.05;;
36931;SDS011;22847;42.654;23.370;2024-02-28T13:46:44;12.45;;;7.68;;
36931;SDS011;22847;42.654;23.370;2024-02-28T13:49:10;13.77;;;6.55;;
36931;SDS011;22847;42.654;23.370;2024-02-28T13:51:36;24.20;;;7.35;;
36931;SDS011;22847;42.654;23.370;2024-02-28T13:54:01;15.00;;;8.43;;
36931;SDS011;22847;42.654;23.370;2024-02-28T13:56:27;14.88;;;8.02;;
36931;SDS011;22847;42.654;23.370;2024-02-28T13:58:54;16.58;;;8.32;;
36931;SDS011;22847;42.654;23.370;2024-02-28T14:01:20;19.02;;;7.38;;
36931;SDS011;22847;42.654;23.370;2024-02-28T14:03:45;26.48;;;9.70;;
36931;SDS011;22847;42.654;23.370;2024-02-28T14:06:11;23.60;;;7.68;;
36931;SDS011;22847;42.654;23.370;2024-02-28T14:08:36;24.92;;;8.25;;